Time;durP1;ratioP1;P1;durP2;ratioP2;P2;SDS_P1;SDS_P2;PMS_P1;PMS_P2;Temp;Humidity;BMP_temperature;BMP_pressure;BME280_temperature;BME280_humidity;BME280_pressure;Samples;Min_cycle;Max_cycle;Signal;HPM_P1;HPM_P2
2023/11/04 00:00:34;;;;;;;17.13;2.95;;;;;;;;;;5072665;28;20043;-77
2023/11/04 00:03:21;;;;;;;20.42;2.03;;;;;;;;;;5070164;28;20137;-77
2023/11/04 00:05:47;;;;;;;16.65;2.38;;;;;;;;;;5070549;28;20067;-77
2023/11/04 00:08:14;;;;;;;20.33;3.10;;;;;;;;;;5070054;28;20037;-78
2023/11/04 00:10:41;;;;;;;21.85;3.88;;;;;;;;;;5052465;28;20228;-77
2023/11/04 00:13:08;;;;;;;22.08;3.13;;;;;;;;;;5070441;28;20050;-78
2023/11/04 00:15:35;;;;;;;26.33;2.83;;;;;;;;;;5070817;28;20059;-77
2023/11/04 00:18:02;;;;;;;15.48;2.10;;;;;;;;;;5069699;28;20353;-77
2023/11/04 00:20:28;;;;;;;20.08;2.55;;;;;;;;;;5070692;28;20045;-77
2023/11/04 00:23:08;;;;;;;17.80;2.67;;;;;;;;;;5072000;28;20041;-77
2023/11/04 00:25:36;;;;;;;18.35;3.50;;;;;;;;;;5054384;28;20036;-79
2023/11/04 00:28:03;;;;;;;16.83;2.05;;;;;;;;;;5072411;28;20119;-77
2023/11/04 00:30:30;;;;;;;13.57;2.08;;;;;;;;;;5071872;28;20072;-77
2023/11/04 00:32:57;;;;;;;16.88;2.25;;;;;;;;;;5053647;28;20465;-79
2023/11/04 00:35:25;;;;;;;8.90;1.90;;;;;;;;;;5037091;28;20123;-78
2023/11/04 00:37:51;;;;;;;14.48;1.63;;;;;;;;;;5063522;28;20044;-77
2023/11/04 00:40:19;;;;;;;10.82;1.42;;;;;;;;;;5064569;28;20516;-78
2023/11/04 00:42:46;;;;;;;3.80;1.40;;;;;;;;;;5081007;28;20055;-78
2023/11/04 00:45:13;;;;;;;7.85;0.98;;;;;;;;;;5080856;28;20044;-77
2023/11/04 00:47:39;;;;;;;10.25;1.55;;;;;;;;;;5082913;28;20044;-77
2023/11/04 00:50:06;;;;;;;7.65;1.25;;;;;;;;;;5080686;28;20413;-78
2023/11/04 00:52:45;;;;;;;8.13;1.08;;;;;;;;;;5078753;28;20040;-78
2023/11/04 00:55:13;;;;;;;5.68;1.38;;;;;;;;;;5079758;28;20044;-78
2023/11/04 00:57:40;;;;;;;8.93;0.93;;;;;;;;;;5050828;28;20047;-77
2023/11/04 01:00:07;;;;;;;6.15;0.90;;;;;;;;;;5078014;28;20036;-77
2023/11/04 01:02:34;;;;;;;5.78;0.70;;;;;;;;;;5076040;28;20036;-78
2023/11/04 01:05:01;;;;;;;6.35;0.75;;;;;;;;;;5058302;28;20044;-78
2023/11/04 01:07:28;;;;;;;7.35;0.90;;;;;;;;;;5075327;28;20040;-78
2023/11/04 01:09:56;;;;;;;6.47;0.70;;;;;;;;;;5058145;28;20040;-78
2023/11/04 01:12:23;;;;;;;5.00;0.80;;;;;;;;;;5075302;28;20102;-78
2023/11/04 01:14:50;;;;;;;4.57;0.70;;;;;;;;;;5075781;28;20287;-77
2023/11/04 01:17:17;;;;;;;5.03;1.02;;;;;;;;;;5075381;28;20052;-81
2023/11/04 01:19:44;;;;;;;4.55;0.80;;;;;;;;;;5057903;28;20467;-77
2023/11/04 01:22:11;;;;;;;2.80;0.50;;;;;;;;;;5075215;28;20040;-78
2023/11/04 01:24:42;;;;;;;2.22;0.50;;;;;;;;;;5075622;28;20124;-78
2023/11/04 01:27:09;;;;;;;7.43;0.77;;;;;;;;;;5075004;28;20111;-78
2023/11/04 01:29:36;;;;;;;3.92;0.77;;;;;;;;;;5057821;28;20036;-78
2023/11/04 01:32:05;;;;;;;3.35;0.50;;;;;;;;;;5041207;28;20560;-79
2023/11/04 01:34:32;;;;;;;6.65;0.80;;;;;;;;;;5057518;28;20047;-78
2023/11/04 01:36:59;;;;;;;5.72;0.60;;;;;;;;;;5040769;28;20045;-79
2023/11/04 01:39:26;;;;;;;5.35;0.68;;;;;;;;;;5074539;28;20371;-77
2023/11/04 01:41:53;;;;;;;2.50;0.60;;;;;;;;;;5057448;28;20048;-77
2023/11/04 01:44:20;;;;;;;2.85;0.65;;;;;;;;;;5074977;28;20045;-79
2023/11/04 01:46:47;;;;;;;9.13;1.00;;;;;;;;;;5075061;28;20040;-79
2023/11/04 01:49:14;;;;;;;5.05;0.60;;;;;;;;;;5074426;28;20037;-78
2023/11/04 01:51:41;;;;;;;4.88;0.77;;;;;;;;;;5073807;28;20127;-78
2023/11/04 01:54:09;;;;;;;6.47;0.70;;;;;;;;;;5056713;28;20386;-78
2023/11/04 01:56:39;;;;;;;2.97;0.47;;;;;;;;;;5040569;28;20045;-77
2023/11/04 01:59:08;;;;;;;2.67;0.50;;;;;;;;;;5056737;28;20450;-81
2023/11/04 02:01:41;;;;;;;3.80;0.70;;;;;;;;;;5057346;28;20037;-79
2023/11/04 02:04:09;;;;;;;7.28;0.77;;;;;;;;;;5055896;28;20044;-79
2023/11/04 02:06:35;;;;;;;3.58;0.95;;;;;;;;;;5056999;28;20037;-79
2023/11/04 02:09:02;;;;;;;6.35;0.80;;;;;;;;;;5040387;28;20178;-80
2023/11/04 02:11:29;;;;;;;3.92;0.88;;;;;;;;;;5040025;28;20064;-79
2023/11/04 02:13:56;;;;;;;4.45;1.00;;;;;;;;;;5056834;28;20044;-79
2023/11/04 02:16:23;;;;;;;3.50;0.65;;;;;;;;;;5039649;28;20040;-79
2023/11/04 02:18:51;;;;;;;6.57;0.70;;;;;;;;;;5057083;28;20044;-80
2023/11/04 02:21:18;;;;;;;3.03;0.50;;;;;;;;;;5056371;28;20055;-79
2023/11/04 02:23:44;;;;;;;3.42;0.40;;;;;;;;;;5039868;28;20456;-80
2023/11/04 02:26:12;;;;;;;1.40;0.50;;;;;;;;;;5074014;28;20037;-79
2023/11/04 02:28:39;;;;;;;4.63;0.50;;;;;;;;;;5074372;28;20040;-80
2023/11/04 02:31:05;;;;;;;1.25;0.65;;;;;;;;;;5039457;28;20498;-79
2023/11/04 02:33:32;;;;;;;2.67;0.47;;;;;;;;;;5074415;28;20040;-79
2023/11/04 02:35:59;;;;;;;1.30;0.15;;;;;;;;;;5039376;28;20060;-80
2023/11/04 02:38:26;;;;;;;2.20;0.50;;;;;;;;;;5055667;28;20497;-79
2023/11/04 02:40:53;;;;;;;4.10;1.02;;;;;;;;;;5074291;28;20044;-80
2023/11/04 02:43:19;;;;;;;2.65;0.40;;;;;;;;;;5055704;28;20182;-80
2023/11/04 02:45:46;;;;;;;5.97;0.30;;;;;;;;;;5074122;28;20059;-80
2023/11/04 02:48:13;;;;;;;4.57;0.38;;;;;;;;;;5055598;28;20508;-79
2023/11/04 02:50:40;;;;;;;9.27;0.90;;;;;;;;;;5056268;28;20055;-79
2023/11/04 02:53:07;;;;;;;10.73;1.23;;;;;;;;;;5055246;28;20045;-79
2023/11/04 02:55:34;;;;;;;17.17;2.50;;;;;;;;;;5055825;28;20033;-81
2023/11/04 02:58:01;;;;;;;28.63;4.55;;;;;;;;;;5055847;28;20140;-81
2023/11/04 03:00:27;;;;;;;30.13;4.38;;;;;;;;;;5073149;28;20564;-80
2023/11/04 03:02:54;;;;;;;47.00;4.28;;;;;;;;;;5073728;28;20123;-80
2023/11/04 03:05:21;;;;;;;35.88;4.15;;;;;;;;;;5038790;28;20033;-81
2023/11/04 03:08:00;;;;;;;48.97;5.43;;;;;;;;;;5071949;28;20036;-81
2023/11/04 03:10:27;;;;;;;46.67;4.28;;;;;;;;;;5054900;28;20036;-81
2023/11/04 03:12:54;;;;;;;44.13;5.32;;;;;;;;;;5039011;28;20039;-81
2023/11/04 03:15:21;;;;;;;45.72;5.80;;;;;;;;;;5071024;28;20474;-81
2023/11/04 03:17:48;;;;;;;52.03;5.65;;;;;;;;;;5054827;28;20098;-81
2023/11/04 03:20:15;;;;;;;46.45;6.38;;;;;;;;;;5054700;28;20033;-81
2023/11/04 03:22:42;;;;;;;37.17;5.53;;;;;;;;;;5055389;28;20032;-81
2023/11/04 03:25:09;;;;;;;51.67;6.38;;;;;;;;;;5038111;28;20098;-81
2023/11/04 03:27:36;;;;;;;49.95;6.70;;;;;;;;;;5055070;28;20048;-80
2023/11/04 03:30:04;;;;;;;51.70;6.40;;;;;;;;;;5072894;28;20043;-81
2023/11/04 03:32:31;;;;;;;63.65;7.00;;;;;;;;;;5072140;28;20044;-80
2023/11/04 03:34:58;;;;;;;53.13;7.13;;;;;;;;;;5054895;28;20040;-80
2023/11/04 03:37:25;;;;;;;58.40;7.22;;;;;;;;;;5054391;28;20040;-80
2023/11/04 03:39:52;;;;;;;68.47;7.85;;;;;;;;;;5034716;28;20080;-80
2023/11/04 03:42:19;;;;;;;69.37;7.97;;;;;;;;;;5051267;28;20045;-80
2023/11/04 03:44:46;;;;;;;63.53;9.23;;;;;;;;;;5034706;28;20044;-80
2023/11/04 03:47:13;;;;;;;62.33;7.88;;;;;;;;;;5052489;28;20048;-80
2023/11/04 03:49:40;;;;;;;70.07;9.43;;;;;;;;;;5051702;28;20040;-80
2023/11/04 03:52:09;;;;;;;68.68;8.65;;;;;;;;;;5050875;28;20533;-80
2023/11/04 03:54:36;;;;;;;67.63;8.45;;;;;;;;;;5051444;28;20478;-81
2023/11/04 03:57:03;;;;;;;58.58;8.27;;;;;;;;;;5051559;28;20041;-80
2023/11/04 03:59:29;;;;;;;50.13;8.30;;;;;;;;;;5050959;28;20516;-79
2023/11/04 04:01:56;;;;;;;62.83;9.75;;;;;;;;;;5053507;28;20044;-82
2023/11/04 04:04:23;;;;;;;60.13;8.27;;;;;;;;;;5086297;28;20044;-80
2023/11/04 04:06:52;;;;;;;73.45;9.20;;;;;;;;;;5057669;28;20470;-79
2023/11/04 04:09:18;;;;;;;;;;;;;;;;;;5074169;28;20040;-79
2023/11/04 04:11:45;;;;;;;76.30;9.07;;;;;;;;;;5058148;28;19946;-80
2023/11/04 04:14:12;;;;;;;54.13;8.52;;;;;;;;;;5057262;28;20047;-79
2023/11/04 04:16:39;;;;;;;51.25;7.80;;;;;;;;;;5092646;28;20453;-80
2023/11/04 04:19:05;;;;;;;58.17;9.05;;;;;;;;;;5057552;28;20796;-79
2023/11/04 04:21:32;;;;;;;59.60;8.45;;;;;;;;;;5091623;28;20044;-80
2023/11/04 04:23:59;;;;;;;49.63;8.60;;;;;;;;;;5057080;28;20055;-80
2023/11/04 04:26:26;;;;;;;49.80;8.20;;;;;;;;;;5069921;28;20090;-78
2023/11/04 04:28:53;;;;;;;59.83;8.82;;;;;;;;;;5052946;28;20135;-79
2023/11/04 04:31:19;;;;;;;57.00;8.13;;;;;;;;;;5070345;28;20127;-79
2023/11/04 04:33:46;;;;;;;69.47;8.32;;;;;;;;;;5070781;28;20052;-80
2023/11/04 04:36:13;;;;;;;63.97;9.40;;;;;;;;;;5070208;28;20059;-80
2023/11/04 04:38:40;;;;;;;62.45;8.43;;;;;;;;;;5072214;28;20375;-79
2023/11/04 04:41:08;;;;;;;57.22;8.30;;;;;;;;;;5054032;28;20040;-81
2023/11/04 04:43:36;;;;;;;59.58;9.70;;;;;;;;;;5054079;28;20120;-80
2023/11/04 04:46:04;;;;;;;68.43;9.45;;;;;;;;;;5054434;28;20045;-80
2023/11/04 04:48:31;;;;;;;71.78;9.38;;;;;;;;;;5071833;28;20044;-79
2023/11/04 04:50:58;;;;;;;73.70;11.57;;;;;;;;;;5054068;28;20493;-79
2023/11/04 04:53:24;;;;;;;67.15;8.95;;;;;;;;;;5054098;28;20041;-80
2023/11/04 04:55:53;;;;;;;82.60;11.05;;;;;;;;;;5072036;28;20036;-79
2023/11/04 04:58:22;;;;;;;71.38;10.07;;;;;;;;;;5053759;28;20043;-80
2023/11/04 05:00:49;;;;;;;67.53;9.07;;;;;;;;;;5072123;28;20055;-79
2023/11/04 05:03:15;;;;;;;83.93;11.30;;;;;;;;;;5071759;28;20041;-79
2023/11/04 05:05:42;;;;;;;74.60;10.13;;;;;;;;;;5054433;28;20071;-79
2023/11/04 05:08:09;;;;;;;60.08;10.00;;;;;;;;;;5053878;28;20135;-79
2023/11/04 05:10:36;;;;;;;67.97;8.50;;;;;;;;;;5070977;28;20524;-79
2023/11/04 05:13:07;;;;;;;72.65;11.50;;;;;;;;;;5071656;28;20040;-79
2023/11/04 05:15:34;;;;;;;70.38;10.00;;;;;;;;;;5054170;28;20040;-80
2023/11/04 05:18:01;;;;;;;75.63;9.43;;;;;;;;;;5072120;28;20096;-79
2023/11/04 05:20:29;;;;;;;74.38;9.90;;;;;;;;;;5071443;28;20063;-79
2023/11/04 05:22:57;;;;;;;68.75;9.70;;;;;;;;;;5054370;28;20040;-79
2023/11/04 05:25:24;;;;;;;60.35;9.68;;;;;;;;;;5053779;28;20128;-79
2023/11/04 05:27:52;;;;;;;64.60;8.98;;;;;;;;;;5054180;28;20086;-82
2023/11/04 05:30:19;;;;;;;62.13;9.45;;;;;;;;;;5053783;28;20041;-79
2023/11/04 05:32:45;;;;;;;71.05;9.95;;;;;;;;;;5071914;28;20523;-79
2023/11/04 05:35:12;;;;;;;73.50;9.23;;;;;;;;;;5071029;28;20183;-79
2023/11/04 05:37:39;;;;;;;41.30;6.38;;;;;;;;;;5072122;28;20040;-78
2023/11/04 05:40:07;;;;;;;35.25;4.90;;;;;;;;;;5055251;28;20496;-79
2023/11/04 05:42:34;;;;;;;30.67;4.57;;;;;;;;;;5074260;28;20493;-79
2023/11/04 05:45:01;;;;;;;27.95;4.57;;;;;;;;;;5091316;28;20045;-79
2023/11/04 05:47:28;;;;;;;38.53;4.88;;;;;;;;;;5057042;28;20470;-78
2023/11/04 05:49:55;;;;;;;33.80;5.00;;;;;;;;;;5057402;28;20037;-79
2023/11/04 05:52:22;;;;;;;33.08;4.70;;;;;;;;;;5057354;28;20059;-79
2023/11/04 05:54:49;;;;;;;37.00;4.70;;;;;;;;;;5057351;28;20040;-77
2023/11/04 05:57:16;;;;;;;37.42;4.50;;;;;;;;;;5074726;28;20055;-79
2023/11/04 05:59:44;;;;;;;34.63;4.22;;;;;;;;;;5075337;28;20063;-79
2023/11/04 06:02:12;;;;;;;30.63;4.70;;;;;;;;;;5056886;28;20388;-80
2023/11/04 06:04:39;;;;;;;34.58;3.80;;;;;;;;;;5057244;28;20036;-78
2023/11/04 06:07:06;;;;;;;40.35;5.15;;;;;;;;;;5056806;28;20041;-79
2023/11/04 06:09:34;;;;;;;45.08;5.47;;;;;;;;;;5057203;28;20048;-82
2023/11/04 06:12:03;;;;;;;48.15;5.85;;;;;;;;;;5040339;28;20047;-79
2023/11/04 06:14:29;;;;;;;55.13;7.18;;;;;;;;;;5056832;28;20036;-79
2023/11/04 06:16:56;;;;;;;67.95;8.50;;;;;;;;;;5057254;28;20052;-79
2023/11/04 06:19:23;;;;;;;77.15;8.57;;;;;;;;;;5089576;28;20040;-80
2023/11/04 06:21:50;;;;;;;57.00;7.00;;;;;;;;;;5074787;28;20044;-81
2023/11/04 06:24:17;;;;;;;69.10;9.32;;;;;;;;;;5056357;28;20040;-81
2023/11/04 06:26:44;;;;;;;65.70;9.95;;;;;;;;;;5053502;28;20090;-79
2023/11/04 06:29:10;;;;;;;76.95;8.95;;;;;;;;;;5054423;28;20044;-78
2023/11/04 06:31:37;;;;;;;76.65;9.95;;;;;;;;;;5087008;28;20049;-78
2023/11/04 06:34:06;;;;;;;78.55;9.27;;;;;;;;;;5052688;28;20087;-78
2023/11/04 06:36:33;;;;;;;;;;;;;;;;;;5053419;28;20047;-79
2023/11/04 06:38:59;;;;;;;73.22;9.98;;;;;;;;;;5036585;28;19920;-79
2023/11/04 06:41:26;;;;;;;78.60;9.27;;;;;;;;;;5052450;28;20390;-82
2023/11/04 06:43:54;;;;;;;69.18;8.75;;;;;;;;;;5053125;28;20058;-79
2023/11/04 06:46:21;;;;;;;74.88;10.68;;;;;;;;;;5036102;28;20107;-80
2023/11/04 06:48:47;;;;;;;68.90;9.73;;;;;;;;;;5036488;28;20467;-81
2023/11/04 06:51:18;;;;;;;41.97;6.50;;;;;;;;;;5052556;28;20044;-78
2023/11/04 06:53:45;;;;;;;18.45;3.63;;;;;;;;;;5052977;28;20550;-79
2023/11/04 06:56:13;;;;;;;15.63;2.45;;;;;;;;;;5052211;28;20068;-79
2023/11/04 06:58:40;;;;;;;6.13;1.17;;;;;;;;;;5053026;28;20090;-77
2023/11/04 07:01:13;;;;;;;8.50;1.52;;;;;;;;;;5052361;28;20475;-78
2023/11/04 07:03:40;;;;;;;11.55;1.65;;;;;;;;;;5052512;28;20502;-78
2023/11/04 07:06:14;;;;;;;13.80;1.60;;;;;;;;;;5053548;28;20083;-79
2023/11/04 07:08:42;;;;;;;24.88;2.28;;;;;;;;;;5052636;28;20083;-79
2023/11/04 07:11:13;;;;;;;24.40;3.85;;;;;;;;;;5052075;28;20045;-79
2023/11/04 07:13:40;;;;;;;24.20;2.95;;;;;;;;;;5052709;28;20431;-78
2023/11/04 07:16:11;;;;;;;22.38;2.78;;;;;;;;;;5051650;28;20372;-79
2023/11/04 07:18:41;;;;;;;27.58;4.38;;;;;;;;;;5052297;28;20541;-78
2023/11/04 07:21:09;;;;;;;35.15;4.30;;;;;;;;;;5035261;28;20029;-82
2023/11/04 07:23:36;;;;;;;29.08;4.88;;;;;;;;;;5065507;28;20036;-79
2023/11/04 07:26:03;;;;;;;38.45;5.70;;;;;;;;;;5073582;28;20100;-80
2023/11/04 07:28:35;;;;;;;41.70;7.72;;;;;;;;;;5055381;28;20055;-79
2023/11/04 07:31:05;;;;;;;50.10;7.90;;;;;;;;;;5039251;28;20422;-79
2023/11/04 07:33:33;;;;;;;58.15;7.30;;;;;;;;;;5054953;28;20098;-79
2023/11/04 07:36:00;;;;;;;58.15;5.72;;;;;;;;;;5054758;28;20090;-78
2023/11/04 07:38:27;;;;;;;34.17;5.30;;;;;;;;;;5054871;28;20043;-79
2023/11/04 07:40:54;;;;;;;24.00;3.83;;;;;;;;;;5039043;28;20375;-82
2023/11/04 07:43:20;;;;;;;22.25;3.10;;;;;;;;;;5072694;28;20058;-82
2023/11/04 07:45:47;;;;;;;21.48;2.80;;;;;;;;;;5055753;28;20052;-78
2023/11/04 07:48:14;;;;;;;28.23;3.40;;;;;;;;;;5054748;28;20045;-79
2023/11/04 07:50:41;;;;;;;24.52;3.95;;;;;;;;;;5073080;28;20048;-81
2023/11/04 07:53:08;;;;;;;31.58;4.00;;;;;;;;;;5038201;28;20044;-79
2023/11/04 07:55:36;;;;;;;29.33;4.03;;;;;;;;;;5038484;28;20051;-80
2023/11/04 07:58:03;;;;;;;31.95;4.30;;;;;;;;;;5072845;28;20538;-80
2023/11/04 08:00:30;;;;;;;43.33;4.57;;;;;;;;;;5054009;28;20048;-79
2023/11/04 08:02:57;;;;;;;41.45;4.53;;;;;;;;;;5053776;28;20368;-80
2023/11/04 08:05:28;;;;;;;47.83;5.20;;;;;;;;;;5053685;28;20082;-79
2023/11/04 08:07:55;;;;;;;34.47;4.65;;;;;;;;;;5054943;28;20052;-79
2023/11/04 08:10:22;;;;;;;42.83;5.03;;;;;;;;;;5054503;28;20415;-80
2023/11/04 08:12:49;;;;;;;46.33;5.60;;;;;;;;;;5055044;28;20132;-79
2023/11/04 08:15:16;;;;;;;44.90;5.80;;;;;;;;;;5072381;28;20497;-79
2023/11/04 08:17:42;;;;;;;46.25;6.05;;;;;;;;;;5055325;28;20041;-80
2023/11/04 08:20:11;;;;;;;60.85;7.10;;;;;;;;;;5071691;28;20032;-80
2023/11/04 08:22:39;;;;;;;52.90;7.15;;;;;;;;;;5054746;28;20489;-80
2023/11/04 08:25:07;;;;;;;44.23;6.70;;;;;;;;;;5054067;28;20123;-80
2023/11/04 08:27:35;;;;;;;42.90;5.47;;;;;;;;;;5039422;28;20146;-79
2023/11/04 08:30:04;;;;;;;39.30;5.68;;;;;;;;;;5054281;28;20045;-78
2023/11/04 08:32:31;;;;;;;45.42;6.85;;;;;;;;;;5054019;28;20390;-79
2023/11/04 08:34:58;;;;;;;33.20;4.88;;;;;;;;;;5054094;28;20066;-80
2023/11/04 08:37:27;;;;;;;37.60;5.70;;;;;;;;;;5066770;28;20036;-77
2023/11/04 08:39:54;;;;;;;32.67;5.00;;;;;;;;;;5052068;28;20037;-78
2023/11/04 08:42:24;;;;;;;37.00;5.82;;;;;;;;;;5059154;28;20312;-79
2023/11/04 08:44:51;;;;;;;40.38;5.82;;;;;;;;;;5050855;28;20037;-79
2023/11/04 08:47:18;;;;;;;32.75;4.90;;;;;;;;;;5054100;28;20387;-81
2023/11/04 08:49:45;;;;;;;36.53;5.30;;;;;;;;;;5075323;28;20119;-78
2023/11/04 08:52:12;;;;;;;39.72;6.45;;;;;;;;;;5054374;28;20090;-81
2023/11/04 08:54:40;;;;;;;42.35;7.18;;;;;;;;;;5054399;28;20051;-80
2023/11/04 08:57:07;;;;;;;;;;;;;;;;;;5038002;28;20051;-80
2023/11/04 08:59:34;;;;;;;40.40;6.60;;;;;;;;;;5054654;28;19927;-80
2023/11/04 09:02:01;;;;;;;38.67;6.47;;;;;;;;;;5053037;28;20040;-80
2023/11/04 09:04:27;;;;;;;49.58;7.15;;;;;;;;;;5071240;28;20489;-80
2023/11/04 09:06:55;;;;;;;62.72;8.05;;;;;;;;;;5054343;28;20094;-78
2023/11/04 09:09:22;;;;;;;55.75;7.85;;;;;;;;;;5053886;28;20044;-78
2023/11/04 09:11:49;;;;;;;46.67;6.60;;;;;;;;;;5054187;28;20049;-78
2023/11/04 09:14:16;;;;;;;50.05;7.57;;;;;;;;;;5072019;28;20051;-79
2023/11/04 09:16:43;;;;;;;55.53;8.43;;;;;;;;;;5075845;28;20036;-79
2023/11/04 09:19:09;;;;;;;43.83;7.47;;;;;;;;;;5057680;28;20044;-78
2023/11/04 09:21:36;;;;;;;60.22;8.13;;;;;;;;;;5037988;28;20052;-81
2023/11/04 09:24:03;;;;;;;62.15;8.70;;;;;;;;;;5057498;28;20040;-79
2023/11/04 09:26:30;;;;;;;66.18;9.15;;;;;;;;;;5074136;28;20049;-77
2023/11/04 09:28:57;;;;;;;63.42;9.02;;;;;;;;;;5057925;28;20071;-78
2023/11/04 09:31:24;;;;;;;63.25;9.27;;;;;;;;;;5057273;28;20051;-81
2023/11/04 09:33:52;;;;;;;45.28;8.63;;;;;;;;;;5057381;28;20060;-78
2023/11/04 09:36:19;;;;;;;55.92;9.27;;;;;;;;;;5073665;28;20036;-81
2023/11/04 09:38:46;;;;;;;50.70;8.77;;;;;;;;;;5074451;28;20044;-78
2023/11/04 09:41:13;;;;;;;44.33;8.82;;;;;;;;;;5073881;28;20040;-78
2023/11/04 09:43:40;;;;;;;47.03;9.95;;;;;;;;;;5057649;28;20056;-77
2023/11/04 09:46:08;;;;;;;51.70;9.63;;;;;;;;;;5075157;28;20044;-78
2023/11/04 09:48:37;;;;;;;41.40;7.65;;;;;;;;;;5057292;28;20364;-77
2023/11/04 09:51:11;;;;;;;51.20;9.32;;;;;;;;;;5057541;28;20044;-77
2023/11/04 09:53:45;;;;;;;51.47;7.13;;;;;;;;;;5057425;28;20033;-78
2023/11/04 09:56:12;;;;;;;47.00;8.70;;;;;;;;;;5074803;28;20052;-79
2023/11/04 09:58:39;;;;;;;52.03;6.95;;;;;;;;;;5074972;28;20367;-79
2023/11/04 10:01:06;;;;;;;43.28;7.07;;;;;;;;;;5057142;28;20052;-79
2023/11/04 10:03:32;;;;;;;51.53;6.80;;;;;;;;;;5056905;28;20132;-79
2023/11/04 10:05:59;;;;;;;48.50;6.70;;;;;;;;;;5040462;28;20041;-78
2023/11/04 10:08:26;;;;;;;46.65;6.90;;;;;;;;;;5074665;28;20485;-79
2023/11/04 10:10:53;;;;;;;43.47;7.00;;;;;;;;;;5057001;28;20048;-80
2023/11/04 10:13:19;;;;;;;48.65;7.32;;;;;;;;;;5074140;28;20075;-81
2023/11/04 10:15:46;;;;;;;50.45;6.70;;;;;;;;;;5040533;28;20041;-80
2023/11/04 10:18:14;;;;;;;48.38;7.80;;;;;;;;;;5073946;28;20040;-79
2023/11/04 10:20:41;;;;;;;43.13;6.80;;;;;;;;;;5057097;28;20055;-79
2023/11/04 10:23:09;;;;;;;41.97;6.75;;;;;;;;;;5056355;28;20513;-79
2023/11/04 10:25:35;;;;;;;49.75;7.90;;;;;;;;;;5073799;28;20044;-80
2023/11/04 10:28:02;;;;;;;37.63;6.78;;;;;;;;;;5074648;28;20059;-80
2023/11/04 10:30:29;;;;;;;41.33;5.60;;;;;;;;;;5074102;28;20064;-80
2023/11/04 10:32:59;;;;;;;31.67;4.88;;;;;;;;;;5074390;28;20534;-80
2023/11/04 10:35:27;;;;;;;28.60;4.88;;;;;;;;;;5038642;28;20385;-80
2023/11/04 10:37:55;;;;;;;28.75;5.65;;;;;;;;;;5055721;28;20116;-79
2023/11/04 10:40:23;;;;;;;32.17;5.13;;;;;;;;;;5073354;28;20467;-80
2023/11/04 10:42:57;;;;;;;40.47;6.88;;;;;;;;;;5073509;28;20044;-79
2023/11/04 10:45:28;;;;;;;50.10;7.32;;;;;;;;;;5035860;28;20052;-80
2023/11/04 10:48:18;;;;;;;52.90;7.28;;;;;;;;;;5036626;28;20067;-79
2023/11/04 10:50:54;;;;;;;42.75;6.38;;;;;;;;;;5036512;28;20045;-79
2023/11/04 10:53:41;;;;;;;46.45;7.03;;;;;;;;;;5036161;28;20047;-79
2023/11/04 10:56:15;;;;;;;52.50;7.47;;;;;;;;;;5035947;28;20040;-81
2023/11/04 10:58:50;;;;;;;54.47;7.70;;;;;;;;;;5036472;28;20048;-79
2023/11/04 11:01:18;;;;;;;48.50;7.20;;;;;;;;;;5036094;28;20051;-79
2023/11/04 11:03:47;;;;;;;59.78;7.80;;;;;;;;;;5021358;28;20048;-80
2023/11/04 11:06:14;;;;;;;60.65;10.25;;;;;;;;;;5059896;28;20525;-80
2023/11/04 11:08:43;;;;;;;50.03;10.48;;;;;;;;;;5093651;28;20097;-79
2023/11/04 11:11:21;;;;;;;61.28;11.25;;;;;;;;;;5075109;28;20043;-80
2023/11/04 11:13:51;;;;;;;42.60;7.70;;;;;;;;;;5080601;28;20051;-80
2023/11/04 11:16:19;;;;;;;45.58;7.93;;;;;;;;;;5081925;28;20044;-80
2023/11/04 11:18:45;;;;;;;46.15;6.10;;;;;;;;;;5078228;28;20507;-80
2023/11/04 11:21:13;;;;;;;46.45;9.95;;;;;;;;;;5078501;28;20127;-80
2023/11/04 11:23:40;;;;;;;42.22;6.43;;;;;;;;;;5065679;28;20043;-79
2023/11/04 11:26:11;;;;;;;44.30;7.60;;;;;;;;;;5082809;28;20478;-80
2023/11/04 11:28:44;;;;;;;18.25;3.65;;;;;;;;;;5060157;28;20044;-80
2023/11/04 11:31:14;;;;;;;16.90;2.90;;;;;;;;;;5077814;28;20032;-79
2023/11/04 11:33:41;;;;;;;18.17;3.17;;;;;;;;;;5083748;28;20045;-79
2023/11/04 11:36:13;;;;;;;28.13;4.40;;;;;;;;;;5078654;28;20040;-80
2023/11/04 11:38:45;;;;;;;31.95;4.72;;;;;;;;;;5074764;28;20042;-78
2023/11/04 11:41:14;;;;;;;30.40;5.05;;;;;;;;;;5054208;28;20086;-80
2023/11/04 11:43:46;;;;;;;31.67;5.20;;;;;;;;;;5076403;28;20500;-79
2023/11/04 11:46:13;;;;;;;25.65;4.65;;;;;;;;;;5031985;28;20095;-79
2023/11/04 11:48:43;;;;;;;44.67;5.78;;;;;;;;;;5046034;28;20045;-79
2023/11/04 11:51:12;;;;;;;34.10;4.95;;;;;;;;;;5072320;28;20043;-79
2023/11/04 11:53:42;;;;;;;37.90;4.90;;;;;;;;;;5078925;28;20131;-79
2023/11/04 11:56:10;;;;;;;33.00;6.13;;;;;;;;;;5081027;28;20036;-79
2023/11/04 11:58:40;;;;;;;45.53;6.20;;;;;;;;;;5045214;28;20439;-80
2023/11/04 12:01:08;;;;;;;35.17;7.45;;;;;;;;;;5065686;28;20033;-78
2023/11/04 12:03:35;;;;;;;41.88;6.75;;;;;;;;;;5055509;28;20041;-78
2023/11/04 12:06:03;;;;;;;52.70;7.53;;;;;;;;;;5067747;28;20044;-78
2023/11/04 12:08:30;;;;;;;44.25;6.78;;;;;;;;;;5071071;28;20043;-78
2023/11/04 12:10:58;;;;;;;51.05;8.65;;;;;;;;;;5050659;28;20052;-78
2023/11/04 12:13:24;;;;;;;31.98;5.50;;;;;;;;;;5039402;28;20056;-78
2023/11/04 12:15:51;;;;;;;34.60;7.38;;;;;;;;;;5053972;28;20452;-77
2023/11/04 12:18:17;;;;;;;32.47;6.05;;;;;;;;;;5052695;28;20110;-78
2023/11/04 12:20:45;;;;;;;45.85;6.57;;;;;;;;;;5067860;28;20140;-79
2023/11/04 12:23:14;;;;;;;50.13;7.47;;;;;;;;;;5053021;28;20036;-80
2023/11/04 12:25:42;;;;;;;43.30;6.32;;;;;;;;;;5053370;28;20044;-78
2023/11/04 12:28:10;;;;;;;41.60;9.93;;;;;;;;;;5073363;28;20040;-78
2023/11/04 12:30:36;;;;;;;28.23;4.70;;;;;;;;;;5075110;28;20493;-80
2023/11/04 12:33:04;;;;;;;32.45;6.53;;;;;;;;;;5053848;28;20049;-80
2023/11/04 12:35:34;;;;;;;32.05;6.75;;;;;;;;;;5046294;28;20061;-79
2023/11/04 12:38:01;;;;;;;32.72;5.43;;;;;;;;;;5046274;28;20056;-79
2023/11/04 12:40:29;;;;;;;29.10;5.32;;;;;;;;;;5042054;28;20041;-80
2023/11/04 12:43:01;;;;;;;22.20;4.60;;;;;;;;;;5041455;28;20055;-79
2023/11/04 12:45:28;;;;;;;24.42;5.30;;;;;;;;;;5039220;28;20124;-80
2023/11/04 12:47:55;;;;;;;32.50;5.45;;;;;;;;;;5048500;28;20036;-80
2023/11/04 12:50:22;;;;;;;24.48;6.32;;;;;;;;;;5047121;28;20073;-79
2023/11/04 12:52:50;;;;;;;33.97;6.43;;;;;;;;;;5051516;28;20053;-79
2023/11/04 12:55:17;;;;;;;32.23;6.30;;;;;;;;;;5048131;28;20037;-79
2023/11/04 12:57:44;;;;;;;28.10;5.18;;;;;;;;;;5052275;28;20276;-79
2023/11/04 13:00:11;;;;;;;32.30;5.25;;;;;;;;;;5052152;28;20041;-78
2023/11/04 13:02:38;;;;;;;38.40;8.68;;;;;;;;;;5046123;28;20103;-77
2023/11/04 13:05:06;;;;;;;46.70;7.53;;;;;;;;;;5044731;28;20048;-78
2023/11/04 13:07:33;;;;;;;41.85;7.25;;;;;;;;;;5049111;28;20468;-79
2023/11/04 13:09:59;;;;;;;45.53;8.93;;;;;;;;;;5048388;28;20080;-77
2023/11/04 13:12:26;;;;;;;39.10;8.05;;;;;;;;;;5051812;28;20070;-79
2023/11/04 13:14:53;;;;;;;31.52;5.93;;;;;;;;;;5051975;28;20538;-79
2023/11/04 13:17:20;;;;;;;32.10;5.82;;;;;;;;;;5053129;28;20052;-79
2023/11/04 13:19:46;;;;;;;39.05;8.20;;;;;;;;;;5053295;28;20044;-79
2023/11/04 13:22:13;;;;;;;39.88;6.15;;;;;;;;;;5057564;28;20048;-79
2023/11/04 13:24:40;;;;;;;42.83;6.57;;;;;;;;;;5055796;28;20049;-79
2023/11/04 13:27:06;;;;;;;50.63;8.10;;;;;;;;;;5053272;28;20677;-79
2023/11/04 13:29:33;;;;;;;58.38;9.38;;;;;;;;;;5053898;28;20037;-80
2023/11/04 13:32:01;;;;;;;57.53;8.07;;;;;;;;;;5054203;28;20037;-80
2023/11/04 13:34:29;;;;;;;61.83;9.77;;;;;;;;;;5072196;28;20040;-80
2023/11/04 13:36:56;;;;;;;62.30;8.15;;;;;;;;;;5061678;28;20049;-80
2023/11/04 13:39:24;;;;;;;52.17;7.82;;;;;;;;;;5055023;28;20064;-79
2023/11/04 13:41:51;;;;;;;39.58;5.78;;;;;;;;;;5055064;28;20028;-79
2023/11/04 13:44:18;;;;;;;39.78;6.72;;;;;;;;;;5054664;28;20544;-79
2023/11/04 13:46:46;;;;;;;39.28;7.47;;;;;;;;;;5053999;28;20040;-80
2023/11/04 13:49:12;;;;;;;50.03;8.02;;;;;;;;;;5069012;28;20498;-79
2023/11/04 13:51:39;;;;;;;50.08;8.18;;;;;;;;;;5071318;28;20124;-80
2023/11/04 13:54:06;;;;;;;48.58;7.68;;;;;;;;;;5055112;28;20094;-79
2023/11/04 13:56:33;;;;;;;60.42;9.27;;;;;;;;;;5056929;28;20051;-79
2023/11/04 13:59:01;;;;;;;67.45;12.50;;;;;;;;;;5054858;28;20045;-79
2023/11/04 14:01:31;;;;;;;48.58;7.43;;;;;;;;;;5042410;28;20068;-79
2023/11/04 14:03:58;;;;;;;36.10;7.40;;;;;;;;;;5057573;28;20045;-79
2023/11/04 14:06:25;;;;;;;28.85;7.30;;;;;;;;;;5062461;28;20042;-78
2023/11/04 14:08:52;;;;;;;33.03;6.63;;;;;;;;;;5058875;28;20101;-77
2023/11/04 14:11:19;;;;;;;45.67;7.78;;;;;;;;;;5053403;28;20098;-78
2023/11/04 14:13:47;;;;;;;45.38;7.82;;;;;;;;;;5054646;28;20045;-79
2023/11/04 14:16:14;;;;;;;39.30;6.22;;;;;;;;;;5053697;28;20064;-78
2023/11/04 14:18:40;;;;;;;48.15;6.30;;;;;;;;;;5054363;28;20041;-78
2023/11/04 14:21:09;;;;;;;47.90;6.68;;;;;;;;;;5062557;28;20057;-78
2023/11/04 14:23:36;;;;;;;33.63;6.35;;;;;;;;;;5053820;28;20041;-78
2023/11/04 14:26:04;;;;;;;39.53;7.03;;;;;;;;;;5035133;28;20128;-79
2023/11/04 14:28:30;;;;;;;39.28;5.85;;;;;;;;;;5052729;28;20037;-79
2023/11/04 14:30:57;;;;;;;51.90;7.53;;;;;;;;;;5053105;28;20060;-78
2023/11/04 14:33:24;;;;;;;52.70;7.03;;;;;;;;;;5052315;28;21528;-79
2023/11/04 14:35:51;;;;;;;62.40;7.72;;;;;;;;;;5061306;28;20491;-79